createdAt,value
2018-11-10T00:00:28.400Z,97197.31
2018-11-10T00:02:56.885Z,97199.56
2018-11-10T00:05:25.813Z,97196.58
2018-11-10T00:07:54.367Z,97200.40
2018-11-10T00:12:50.527Z,97191.55
2018-11-10T00:15:19.016Z,97191.55
2018-11-10T00:17:47.518Z,97200.08
2018-11-10T00:20:15.999Z,97194.98
2018-11-10T00:22:44.480Z,97189.88
2018-11-10T00:25:14.068Z,97194.14
2018-11-10T00:27:43.518Z,97189.05
2018-11-10T00:30:13.999Z,97187.32
2018-11-10T00:32:43.208Z,97188.20
2018-11-10T00:35:11.722Z,97189.47
2018-11-10T00:37:40.214Z,97195.85
2018-11-10T00:40:10.479Z,97198.41
2018-11-10T00:45:06.743Z,97179.23
2018-11-10T00:47:35.231Z,97173.69
2018-11-10T00:50:03.762Z,97172.41
2018-11-10T00:52:32.246Z,97165.56
2018-11-10T00:55:00.778Z,97172.84
2018-11-10T00:57:29.295Z,97174.13
2018-11-10T00:59:57.793Z,97168.59
2018-11-10T01:02:26.283Z,97172.02
2018-11-10T01:04:54.757Z,97165.64
2018-11-10T01:07:23.235Z,97167.31
2018-11-10T01:09:51.719Z,97164.36
2018-11-10T01:12:20.227Z,97162.20
2018-11-10T01:14:48.734Z,97166.91
2018-11-10T01:17:17.240Z,97163.41
2018-11-10T01:19:45.702Z,97172.41
2018-11-10T01:22:14.195Z,97163.84
2018-11-10T01:24:42.680Z,97165.20
2018-11-10T01:27:11.163Z,97162.20
2018-11-10T01:29:39.633Z,97164.28
2018-11-10T01:32:08.139Z,97160.86
2018-11-10T01:34:36.622Z,97160.09
2018-11-10T01:37:05.139Z,97155.03
2018-11-10T01:39:33.629Z,97145.63
2018-11-10T01:42:02.113Z,97142.23
2018-11-10T01:44:30.595Z,97143.52
2018-11-10T01:46:59.115Z,97139.61
2018-11-10T01:49:27.617Z,97143.52
2018-11-10T01:51:56.094Z,97136.63
2018-11-10T01:54:24.554Z,97135.34
2018-11-10T01:56:53.099Z,97129.40
2018-11-10T01:59:21.558Z,97129.48
2018-11-10T02:01:50.035Z,97132.80
2018-11-10T02:04:18.511Z,97130.20
2018-11-10T02:06:47.172Z,97135.78
2018-11-10T02:09:15.696Z,97124.66
2018-11-10T02:11:44.187Z,97130.24
2018-11-10T02:14:12.684Z,97129.40
2018-11-10T02:16:41.189Z,97126.85
2018-11-10T02:19:09.715Z,97123.02
2018-11-10T02:21:38.203Z,97114.94
2018-11-10T02:24:06.775Z,97109.79
2018-11-10T02:26:35.281Z,97111.07
2018-11-10T02:29:03.771Z,97105.52
2018-11-10T02:31:32.242Z,97105.17
2018-11-10T02:34:00.736Z,97102.61
2018-11-10T02:36:29.203Z,97095.31
2018-11-10T02:38:57.724Z,97091.53
2018-11-10T02:41:26.227Z,97092.41
2018-11-10T02:43:54.727Z,97087.27
2018-11-10T02:46:23.208Z,97077.06
2018-11-10T02:48:51.688Z,97074.91
2018-11-10T02:51:20.167Z,97071.92
2018-11-10T02:53:48.639Z,97074.87
2018-11-10T02:56:17.152Z,97076.14
2018-11-10T02:58:45.643Z,97077.82
2018-11-10T03:01:14.126Z,97081.20
2018-11-10T03:03:42.638Z,97087.63
2018-11-10T03:06:11.118Z,97085.08
2018-11-10T03:08:39.588Z,97085.08
2018-11-10T03:11:08.106Z,97079.97
2018-11-10T03:13:36.583Z,97088.02
2018-11-10T03:16:05.165Z,97081.64
2018-11-10T03:18:33.642Z,97079.09
2018-11-10T03:21:02.139Z,97079.97
2018-11-10T03:23:30.638Z,97079.53
2018-11-10T03:25:59.135Z,97079.57
2018-11-10T03:28:27.610Z,97076.55
2018-11-10T03:30:56.212Z,97078.30
2018-11-10T03:33:24.691Z,97074.08
2018-11-10T03:35:53.190Z,97075.31
2018-11-10T03:38:21.667Z,97074.52
2018-11-10T03:40:50.156Z,97068.53
2018-11-10T03:43:18.674Z,97074.03
2018-11-10T03:45:47.159Z,97077.91
2018-11-10T03:48:15.623Z,97072.77
2018-11-10T03:50:44.107Z,97076.19
2018-11-10T03:53:12.574Z,97073.23
2018-11-10T03:55:41.047Z,97065.11
2018-11-10T03:58:09.527Z,97070.64
2018-11-10T04:00:37.990Z,97069.41
2018-11-10T04:03:06.491Z,97069.81
2018-11-10T04:05:34.941Z,97069.81
2018-11-10T04:08:03.421Z,97071.92
2018-11-10T04:10:31.887Z,97065.54
2018-11-10T04:13:00.347Z,97061.72
2018-11-10T04:15:28.851Z,97065.11
2018-11-10T04:17:57.355Z,97059.16
2018-11-10T04:20:25.858Z,97058.73
2018-11-10T04:22:54.328Z,97060.48
2018-11-10T04:25:22.797Z,97053.63
2018-11-10T04:27:51.259Z,97055.38
2018-11-10T04:30:19.739Z,97052.79
2018-11-10T04:32:48.218Z,97049.84
2018-11-10T04:35:16.690Z,97043.47
2018-11-10T04:37:45.159Z,97037.92
2018-11-10T04:40:13.664Z,97040.91
2018-11-10T04:42:42.146Z,97037.92
2018-11-10T04:45:11.735Z,97040.03
2018-11-10T04:47:40.670Z,97043.91
2018-11-10T04:50:10.428Z,97041.30
2018-11-10T04:52:38.891Z,97032.82
2018-11-10T04:55:08.182Z,97038.84
2018-11-10T04:57:36.642Z,97040.52
2018-11-10T05:00:06.994Z,97043.47
2018-11-10T05:02:35.447Z,97043.06
2018-11-10T05:05:03.924Z,97048.61
2018-11-10T05:07:32.369Z,97041.75
2018-11-10T05:10:00.836Z,97040.08
2018-11-10T05:12:29.316Z,97046.02
2018-11-10T05:14:57.800Z,97049.84
2018-11-10T05:17:26.259Z,97046.89
2018-11-10T05:19:54.871Z,97039.59
2018-11-10T05:22:23.558Z,97038.33
2018-11-10T05:24:52.016Z,97042.19
2018-11-10T05:27:20.619Z,97036.65
2018-11-10T05:29:49.078Z,97031.59
2018-11-10T05:32:17.571Z,97029.04
2018-11-10T05:34:46.038Z,97034.14
2018-11-10T05:37:14.558Z,97040.52
2018-11-10T05:39:43.027Z,97035.02
2018-11-10T05:42:11.499Z,97029.48
2018-11-10T05:47:07.428Z,97024.38
2018-11-10T05:49:36.113Z,97020.55
2018-11-10T05:52:04.886Z,97023.10
2018-11-10T05:54:33.375Z,97026.48
2018-11-10T05:57:01.917Z,97027.77
2018-11-10T05:59:30.364Z,97028.59
2018-11-10T06:01:58.820Z,97022.62
2018-11-10T06:04:27.300Z,97024.81
2018-11-10T06:06:55.956Z,97026.09
2018-11-10T06:09:24.511Z,97023.06
2018-11-10T06:11:52.992Z,97031.19
2018-11-10T06:14:21.455Z,97024.33
2018-11-10T06:16:49.971Z,97018.43
2018-11-10T06:19:18.486Z,96961.34
2018-11-10T06:21:46.945Z,97020.98
2018-11-10T06:24:15.411Z,97020.11
2018-11-10T06:26:44.000Z,97015.01
2018-11-10T06:29:12.470Z,97019.71
2018-11-10T06:31:40.962Z,97014.97
2018-11-10T06:34:09.432Z,97017.52
2018-11-10T06:36:38.531Z,97017.52
2018-11-10T06:39:09.347Z,97018.79
2018-11-10T06:41:37.901Z,97017.55
2018-11-10T06:44:06.391Z,97014.97
2018-11-10T06:46:34.856Z,97019.67
2018-11-10T06:49:03.487Z,97022.66
2018-11-10T06:51:31.958Z,97017.55
2018-11-10T06:54:00.432Z,97014.13
2018-11-10T06:56:28.904Z,97015.88
2018-11-10T06:58:57.371Z,97013.73
2018-11-10T07:01:25.851Z,97010.78
2018-11-10T07:03:54.313Z,97018.00
2018-11-10T07:06:22.819Z,97011.18
2018-11-10T07:08:51.296Z,97012.45
2018-11-10T07:11:19.765Z,97013.73
2018-11-10T07:13:48.243Z,97018.79
2018-11-10T07:16:16.716Z,97025.61
2018-11-10T07:18:45.255Z,97023.10
2018-11-10T07:21:13.793Z,97014.13
2018-11-10T07:23:42.287Z,97015.01
2018-11-10T07:26:10.747Z,97018.43
2018-11-10T07:28:39.227Z,96982.47
2018-11-10T07:31:07.695Z,97024.33
2018-11-10T07:33:36.149Z,97022.66
2018-11-10T07:36:04.615Z,97017.52
2018-11-10T07:38:33.071Z,97017.95
2018-11-10T07:41:01.574Z,97028.16
2018-11-10T07:43:30.041Z,97022.17
2018-11-10T07:45:58.510Z,97023.02
2018-11-10T07:48:26.978Z,97021.74
2018-11-10T07:50:55.450Z,97017.08
2018-11-10T07:53:23.941Z,97008.15
2018-11-10T07:55:52.462Z,97009.86
2018-11-10T07:58:20.995Z,97020.91
2018-11-10T08:00:49.496Z,97017.08
2018-11-10T08:03:17.988Z,97017.12
2018-11-10T08:05:46.499Z,97017.52
2018-11-10T08:08:14.994Z,97016.64
2018-11-10T08:10:43.457Z,97016.84
2018-11-10T08:13:11.907Z,97022.81
2018-11-10T08:15:41.278Z,97015.16
2018-11-10T08:18:09.765Z,97011.30
2018-11-10T08:20:38.236Z,97020.23
2018-11-10T08:23:06.699Z,97012.57
2018-11-10T08:25:35.159Z,97016.80
2018-11-10T08:28:03.678Z,97018.08
2018-11-10T08:30:32.153Z,97012.89
2018-11-10T08:33:00.618Z,97022.38
2018-11-10T08:35:29.097Z,97018.55
2018-11-10T08:37:57.597Z,97012.57
2018-11-10T08:40:26.071Z,97017.27
2018-11-10T08:42:54.539Z,97015.13
2018-11-10T08:45:23.002Z,97007.47
2018-11-10T08:47:51.467Z,97004.52
2018-11-10T08:50:20.204Z,97001.97
2018-11-10T08:52:48.657Z,97004.08
2018-11-10T08:55:17.156Z,97004.92
2018-11-10T08:57:45.744Z,97003.97
2018-11-10T09:00:14.154Z,97000.14
2018-11-10T09:02:42.613Z,96994.27
2018-11-10T09:05:12.010Z,96987.39
2018-11-10T09:07:40.760Z,96995.55
2018-11-10T09:10:10.984Z,97001.42
2018-11-10T09:12:39.564Z,97015.52
2018-11-10T09:15:10.446Z,97020.55
2018-11-10T09:17:39.020Z,97025.33
2018-11-10T09:20:10.226Z,97024.45
2018-11-10T09:22:38.730Z,97019.34
2018-11-10T09:25:08.943Z,97016.39
2018-11-10T09:27:37.403Z,97010.46
2018-11-10T09:30:06.465Z,97014.28
2018-11-10T09:32:34.942Z,97011.30
2018-11-10T09:35:03.412Z,97014.72
2018-11-10T09:37:31.883Z,97010.02
2018-11-10T09:40:00.354Z,97014.25
2018-11-10T09:42:29.165Z,97016.39
2018-11-10T09:44:57.524Z,97025.77
2018-11-10T09:47:25.993Z,97022.81
2018-11-10T09:49:54.486Z,97023.65
2018-11-10T09:52:22.994Z,97016.84
2018-11-10T09:54:51.475Z,97012.17
2018-11-10T09:57:19.934Z,97009.19
2018-11-10T09:59:48.402Z,97007.06
2018-11-10T10:02:17.253Z,97000.26
2018-11-10T10:04:45.445Z,97005.80
2018-11-10T10:07:13.976Z,97015.13
2018-11-10T10:09:42.467Z,97011.70
2018-11-10T10:12:10.935Z,97003.13
2018-11-10T10:14:39.397Z,97003.20
2018-11-10T10:17:07.910Z,97000.22
2018-11-10T10:19:36.381Z,96998.54
2018-11-10T10:22:05.107Z,96997.27
2018-11-10T10:24:33.587Z,96993.00
2018-11-10T10:27:02.055Z,96993.00
2018-11-10T10:29:30.540Z,96984.07
2018-11-10T10:31:59.017Z,96979.81
2018-11-10T10:34:27.561Z,96977.69
2018-11-10T10:36:56.139Z,96981.52
2018-11-10T10:39:24.615Z,96977.26
2018-11-10T10:41:53.077Z,96966.98
2018-11-10T10:44:21.542Z,96966.58
2018-11-10T10:46:50.069Z,96963.16
2018-11-10T10:49:18.593Z,96959.33
2018-11-10T10:51:47.027Z,96955.94
2018-11-10T10:54:15.502Z,96955.09
2018-11-10T10:56:44.023Z,96952.11
2018-11-10T10:59:12.491Z,96940.20
2018-11-10T11:01:46.482Z,96942.30
2018-11-10T11:04:20.049Z,96935.93
2018-11-10T11:06:48.527Z,96931.70
2018-11-10T11:09:16.991Z,96928.72
2018-11-10T11:11:45.466Z,96932.55
2018-11-10T11:14:13.933Z,96931.27
2018-11-10T11:16:42.403Z,96922.77
2018-11-10T11:19:10.907Z,96918.47
2018-11-10T11:21:39.399Z,96918.08
2018-11-10T11:24:07.880Z,96915.52
2018-11-10T11:26:36.375Z,96919.34
2018-11-10T11:29:04.908Z,96921.50
2018-11-10T11:31:33.386Z,96929.99
2018-11-10T11:34:01.871Z,96931.27
2018-11-10T11:36:30.339Z,96926.60
2018-11-10T11:38:58.807Z,96925.33
2018-11-10T11:41:27.369Z,96927.88
2018-11-10T11:43:55.803Z,96938.08
2018-11-10T11:46:24.299Z,96940.20
2018-11-10T11:48:52.762Z,96946.24
2018-11-10T11:51:21.222Z,96939.80
2018-11-10T11:53:49.690Z,96932.55
2018-11-10T11:56:18.167Z,96929.15
2018-11-10T11:58:46.627Z,96918.87
2018-11-10T12:01:15.100Z,96909.14
2018-11-10T12:03:43.596Z,96910.38
2018-11-10T12:06:12.071Z,96919.34
2018-11-10T12:08:40.535Z,96920.66
2018-11-10T12:11:09.002Z,96921.50
2018-11-10T12:13:37.471Z,96919.78
2018-11-10T12:16:05.928Z,96912.14
2018-11-10T12:18:34.442Z,96902.33
2018-11-10T12:21:02.988Z,96904.00
2018-11-10T12:23:31.415Z,96915.08
2018-11-10T12:25:59.887Z,96917.67
2018-11-10T12:28:28.355Z,96907.43
2018-11-10T12:30:56.815Z,96910.86
2018-11-10T12:33:25.352Z,96914.69
2018-11-10T12:35:53.837Z,96914.65
2018-11-10T12:38:22.313Z,96911.66
2018-11-10T12:40:50.844Z,96906.95
2018-11-10T12:43:19.307Z,96910.78
2018-11-10T12:45:47.786Z,96913.81
2018-11-10T12:48:16.258Z,96916.76
2018-11-10T12:50:44.721Z,96909.11
2018-11-10T12:53:13.219Z,96913.33
2018-11-10T12:55:41.706Z,96916.76
2018-11-10T12:58:10.162Z,96917.63
2018-11-10T13:00:38.635Z,96911.26
2018-11-10T13:03:07.114Z,96906.59
2018-11-10T13:05:35.600Z,96905.72
2018-11-10T13:08:04.113Z,96903.17
2018-11-10T13:10:32.594Z,96900.17
2018-11-10T13:13:01.152Z,96895.91
2018-11-10T13:15:29.629Z,96894.64
2018-11-10T13:17:58.122Z,96894.16
2018-11-10T13:20:26.651Z,96889.53
2018-11-10T13:22:55.113Z,96894.67
2018-11-10T13:25:23.628Z,96895.08
2018-11-10T13:27:52.131Z,96895.11
2018-11-10T13:30:20.608Z,96895.95
2018-11-10T13:32:49.077Z,96900.17
2018-11-10T13:35:17.542Z,96892.53
2018-11-10T13:37:46.088Z,96902.77
2018-11-10T13:40:14.545Z,96898.03
2018-11-10T13:42:43.039Z,96906.16
2018-11-10T13:45:12.758Z,96903.61
2018-11-10T13:47:41.302Z,96901.02
2018-11-10T13:50:10.729Z,96901.86
2018-11-10T13:52:40.415Z,96905.28
2018-11-10T13:55:08.540Z,96909.98
2018-11-10T14:00:19.086Z,96901.89
2018-11-10T14:02:47.580Z,96902.33
2018-11-10T14:05:16.137Z,96896.75
2018-11-10T14:07:44.583Z,96898.03
2018-11-10T14:10:15.176Z,96897.23
2018-11-10T14:12:44.522Z,96897.19
2018-11-10T14:15:12.899Z,96900.17
2018-11-10T14:17:42.045Z,96904.41
2018-11-10T14:20:12.596Z,96903.53
2018-11-10T14:22:41.141Z,96908.67
2018-11-10T14:25:11.592Z,96916.32
2018-11-10T14:27:40.804Z,96911.66
2018-11-10T14:30:11.624Z,96906.12
2018-11-10T14:32:40.453Z,96909.51
2018-11-10T14:35:10.006Z,96906.12
2018-11-10T14:37:38.497Z,96914.20
2018-11-10T14:40:08.597Z,96920.22
2018-11-10T14:42:37.303Z,96911.66
2018-11-10T14:45:07.431Z,96918.95
2018-11-10T14:47:35.911Z,96923.58
2018-11-10T14:50:04.795Z,96918.47
2018-11-10T14:52:33.477Z,96920.63
2018-11-10T14:55:01.940Z,96917.63
2018-11-10T14:57:30.440Z,96918.44
2018-11-10T14:59:58.986Z,96910.38
2018-11-10T15:02:27.456Z,96914.20
2018-11-10T15:04:55.939Z,96911.70
2018-11-10T15:07:24.420Z,96915.92
2018-11-10T15:09:52.899Z,96918.47
2018-11-10T15:12:21.413Z,96915.48
2018-11-10T15:14:49.911Z,96911.26
2018-11-10T15:17:18.386Z,96912.09
2018-11-10T15:19:46.850Z,96913.81
2018-11-10T15:24:42.787Z,96916.32
2018-11-10T15:27:11.264Z,96914.20
2018-11-10T15:29:39.776Z,96914.20
2018-11-10T15:32:08.250Z,96909.94
2018-11-10T15:34:36.767Z,96912.49
2018-11-10T15:37:05.324Z,96918.87
2018-11-10T15:39:33.850Z,96914.57
2018-11-10T15:42:02.335Z,96912.89
2018-11-10T15:44:30.798Z,96915.45
2018-11-10T15:46:59.298Z,96920.55
2018-11-10T15:49:27.762Z,96921.82
2018-11-10T15:51:56.244Z,96929.48
2018-11-10T15:54:24.782Z,96923.50
2018-11-10T15:56:53.274Z,96923.09
2018-11-10T15:59:21.780Z,96934.17
2018-11-10T16:01:50.251Z,96830.09
2018-11-10T16:04:18.740Z,96936.29
2018-11-10T16:06:47.207Z,96928.60
2018-11-10T16:09:15.792Z,96922.22
2018-11-10T16:11:44.207Z,96924.77
2018-11-10T16:14:12.806Z,96929.48
2018-11-10T16:16:41.295Z,96931.15
2018-11-10T16:19:09.789Z,96931.58
2018-11-10T16:21:38.280Z,96929.44
2018-11-10T16:24:06.759Z,96925.20
2018-11-10T16:26:35.240Z,96925.20
2018-11-10T16:29:03.728Z,96925.65
2018-11-10T16:31:32.207Z,96923.50
2018-11-10T16:34:00.703Z,96929.48
2018-11-10T16:36:29.211Z,96927.36
2018-11-10T16:38:57.689Z,96937.61
2018-11-10T16:41:26.162Z,96930.75
2018-11-10T16:43:54.647Z,96938.88
2018-11-10T16:46:23.122Z,96944.86
2018-11-10T16:48:51.641Z,96938.48
2018-11-10T16:51:20.130Z,96935.09
2018-11-10T16:53:48.598Z,96932.14
2018-11-10T16:56:17.093Z,96927.52
2018-11-10T16:58:45.583Z,96927.11
2018-11-10T17:01:14.054Z,96923.73
2018-11-10T17:03:42.526Z,96931.41
2018-11-10T17:06:11.003Z,96933.16
2018-11-10T17:08:39.490Z,96937.83
2018-11-10T17:11:07.988Z,96938.27
2018-11-10T17:13:36.580Z,96941.22
2018-11-10T17:16:05.136Z,96945.92
2018-11-10T17:18:33.624Z,96945.05
2018-11-10T17:21:02.115Z,96950.15
2018-11-10T17:23:30.595Z,96948.88
2018-11-10T17:25:59.106Z,96942.89
2018-11-10T17:28:27.770Z,96939.55
2018-11-10T17:30:56.254Z,96942.89
2018-11-10T17:33:24.744Z,96941.66
2018-11-10T17:35:53.213Z,96943.73
2018-11-10T17:38:22.063Z,96942.45
2018-11-10T17:40:50.533Z,96944.61
2018-11-10T17:43:19.021Z,96948.00
2018-11-10T17:45:47.478Z,96947.16
2018-11-10T17:48:15.984Z,96935.67
2018-11-10T17:50:44.464Z,96936.95
2018-11-10T17:53:12.939Z,96933.12
2018-11-10T17:55:41.412Z,96932.25
2018-11-10T17:58:09.903Z,96929.70
2018-11-10T18:00:38.380Z,96934.80
2018-11-10T18:03:06.849Z,96931.38
2018-11-10T18:05:35.344Z,96925.84
2018-11-10T18:08:03.822Z,96924.16
2018-11-10T18:10:32.282Z,96925.47
2018-11-10T18:13:00.827Z,96917.78
2018-11-10T18:15:29.250Z,96911.80
2018-11-10T18:17:57.722Z,96905.42
2018-11-10T18:20:26.195Z,96899.05
2018-11-10T18:22:54.681Z,96899.05
2018-11-10T18:25:23.223Z,96901.60
2018-11-10T18:27:51.659Z,96900.73
2018-11-10T18:30:20.118Z,96902.88
2018-11-10T18:32:48.593Z,96913.92
2018-11-10T18:35:17.074Z,96923.69
2018-11-10T18:37:45.605Z,96927.52
2018-11-10T18:40:14.107Z,96924.89
2018-11-10T18:42:42.599Z,96925.77
2018-11-10T18:45:11.911Z,96927.88
2018-11-10T18:47:41.003Z,96927.88
2018-11-10T18:50:11.436Z,96918.47
2018-11-10T18:52:39.954Z,96923.17
2018-11-10T18:55:08.422Z,96923.53
2018-11-10T18:57:37.102Z,96921.50
2018-11-10T19:00:06.387Z,96923.61
2018-11-10T19:02:34.890Z,96930.94
2018-11-10T19:05:03.366Z,96936.87
2018-11-10T19:07:31.842Z,96936.04
2018-11-10T19:10:00.332Z,96931.70
2018-11-10T19:12:28.801Z,96935.16
2018-11-10T19:14:57.283Z,96931.34
2018-11-10T19:17:25.764Z,96937.31
2018-11-10T19:19:54.266Z,96940.73
2018-11-10T19:22:22.771Z,96935.59
2018-11-10T19:24:51.244Z,96936.44
2018-11-10T19:27:19.717Z,96938.16
2018-11-10T19:29:48.196Z,96942.02
2018-11-10T19:32:16.746Z,96946.24
2018-11-10T19:34:45.239Z,96952.18
2018-11-10T19:37:13.724Z,96952.63
2018-11-10T19:39:42.212Z,96950.07
2018-11-10T19:42:10.684Z,96948.80
2018-11-10T19:44:39.193Z,96939.42
2018-11-10T19:47:07.683Z,96944.53
2018-11-10T19:49:36.172Z,96949.63
2018-11-10T19:52:04.984Z,96949.20
2018-11-10T19:54:33.296Z,96950.07
2018-11-10T19:57:01.781Z,96941.47
2018-11-10T20:01:57.693Z,96944.09
2018-11-10T20:04:26.159Z,96925.02
2018-11-10T20:06:54.690Z,96941.47
2018-11-10T20:09:23.176Z,96943.25
2018-11-10T20:11:51.638Z,96947.12
2018-11-10T20:14:20.144Z,96955.61
2018-11-10T20:16:48.656Z,96950.94
2018-11-10T20:19:17.164Z,96959.83
2018-11-10T20:21:45.650Z,96947.01
2018-11-10T20:24:14.113Z,96938.48
2018-11-10T20:26:42.602Z,96944.89
2018-11-10T20:29:11.109Z,96937.64
2018-11-10T20:31:39.578Z,96949.20
2018-11-10T20:34:08.061Z,96942.82
2018-11-10T20:36:36.604Z,96947.84
2018-11-10T20:39:06.618Z,96949.55
2018-11-10T20:41:35.066Z,96944.86
2018-11-10T20:44:03.535Z,96947.01
2018-11-10T20:46:32.008Z,96939.35
2018-11-10T20:49:00.484Z,96945.73
2018-11-10T20:51:28.946Z,96951.67
2018-11-10T20:53:57.419Z,96955.02
2018-11-10T20:56:25.925Z,96958.45
2018-11-10T20:58:54.397Z,96957.57
2018-11-10T21:01:22.866Z,96965.27
2018-11-10T21:03:51.337Z,96956.30
2018-11-10T21:06:19.815Z,96955.89
2018-11-10T21:08:48.303Z,96960.56
2018-11-10T21:11:16.780Z,96952.11
2018-11-10T21:13:45.269Z,96949.96
2018-11-10T21:16:13.754Z,96948.68
2018-11-10T21:18:42.255Z,96943.18
2018-11-10T21:21:10.819Z,96946.53
2018-11-10T21:23:39.279Z,96949.09
2018-11-10T21:26:07.763Z,96956.34
2018-11-10T21:28:36.258Z,96951.23
2018-11-10T21:31:04.824Z,96950.83
2018-11-10T21:33:33.386Z,96943.98
2018-11-10T21:36:01.899Z,96938.88
2018-11-10T21:38:30.374Z,96941.39
2018-11-10T21:40:58.847Z,96939.75
2018-11-10T21:43:27.404Z,96941.91
2018-11-10T21:45:55.873Z,96930.39
2018-11-10T21:48:24.354Z,96939.75
2018-11-10T21:50:52.826Z,96931.70
2018-11-10T21:53:21.324Z,96938.92
2018-11-10T21:55:49.796Z,96947.01
2018-11-10T21:58:18.278Z,96957.21
2018-11-10T22:00:46.764Z,96963.59
2018-11-10T22:03:15.237Z,96970.88
2018-11-10T22:05:43.717Z,96971.24
2018-11-10T22:08:12.218Z,96968.25
2018-11-10T22:10:40.691Z,96959.33
2018-11-10T22:13:09.169Z,96956.78
2018-11-10T22:15:37.718Z,96963.59
2018-11-10T22:18:06.170Z,96964.86
2018-11-10T22:20:34.638Z,96961.44
2018-11-10T22:23:03.164Z,96972.52
2018-11-10T22:25:31.614Z,96958.02
2018-11-10T22:28:00.103Z,96963.59
2018-11-10T22:30:28.574Z,96958.89
2018-11-10T22:32:57.066Z,96954.63
2018-11-10T22:35:25.541Z,96949.92
2018-11-10T22:37:54.017Z,96947.41
2018-11-10T22:40:22.719Z,96937.16
2018-11-10T22:42:51.234Z,96942.27
2018-11-10T22:45:20.843Z,96931.66
2018-11-10T22:47:49.396Z,96928.64
2018-11-10T22:50:19.321Z,96938.44
2018-11-10T22:52:47.832Z,96949.48
2018-11-10T22:55:16.331Z,96943.10
2018-11-10T22:57:44.795Z,96951.59
2018-11-10T23:00:19.437Z,96955.02
2018-11-10T23:02:50.117Z,96949.52
2018-11-10T23:05:19.206Z,96943.95
2018-11-10T23:07:47.685Z,96942.70
2018-11-10T23:10:16.697Z,96926.09
2018-11-10T23:12:46.201Z,96918.44
2018-11-10T23:15:14.683Z,96926.12
2018-11-10T23:17:43.159Z,96920.59
2018-11-10T23:20:19.707Z,96924.01
2018-11-10T23:22:48.193Z,96929.52
2018-11-10T23:25:17.608Z,96922.27
2018-11-10T23:27:46.079Z,96924.01
2018-11-10T23:30:18.053Z,96929.11
2018-11-10T23:32:46.546Z,96920.98
2018-11-10T23:35:15.076Z,96919.31
2018-11-10T23:37:43.571Z,96924.01
2018-11-10T23:40:13.643Z,96930.39
2018-11-10T23:42:42.507Z,96931.19
2018-11-10T23:45:11.503Z,96928.28
2018-11-10T23:47:39.966Z,96921.46
2018-11-10T23:50:10.521Z,96929.55
2018-11-10T23:52:39.335Z,96936.29
2018-11-10T23:55:08.700Z,96949.05
2018-11-10T23:57:37.262Z,96947.77
